Time;durP1;ratioP1;P1;durP2;ratioP2;P2;SDS_P1;SDS_P2;PMS_P1;PMS_P2;Temp;Humidity;BMP_temperature;BMP_pressure;BME280_temperature;BME280_humidity;BME280_pressure;Samples;Min_cycle;Max_cycle;Signal;HPM_P1;HPM_P2
2022/01/15 00:00:48;;;;;;;;;31.25;23.75;;;;;;;;5038279;28;51437;-43
2022/01/15 00:03:32;;;;;;;;;22.25;19.75;;;;;;;;5038484;28;51437;-44
2022/01/15 00:06:16;;;;;;;;;22.00;22.00;;;;;;;;5043660;28;51491;-48
2022/01/15 00:09:01;;;;;;;;;27.00;24.25;;;;;;;;5038041;28;51150;-45
2022/01/15 00:11:45;;;;;;;;;27.75;22.75;;;;;;;;5038401;28;51159;-45
2022/01/15 00:14:36;;;;;;;;;20.50;19.00;;;;;;;;5037554;28;51369;-41
2022/01/15 00:17:42;;;;;;;;;21.50;20.25;;;;;;;;5040282;28;51109;-42
2022/01/15 00:20:25;;;;;;;;;25.00;22.00;;;;;;;;5037534;28;51118;-44
2022/01/15 00:23:09;;;;;;;;;23.75;20.25;;;;;;;;5038070;28;51221;-43
2022/01/15 00:25:54;;;;;;;;;25.50;23.00;;;;;;;;5037717;28;51368;-42
2022/01/15 00:28:38;;;;;;;;;27.75;22.75;;;;;;;;5038207;28;51010;-44
2022/01/15 00:31:23;;;;;;;;;26.25;22.50;;;;;;;;5037612;28;51694;-44
2022/01/15 00:34:07;;;;;;;;;24.75;20.25;;;;;;;;5037593;28;51129;-41
2022/01/15 00:36:52;;;;;;;;;28.25;19.00;;;;;;;;5037845;28;51008;-46
2022/01/15 00:39:36;;;;;;;;;25.50;23.00;;;;;;;;5037331;28;51401;-45
2022/01/15 00:42:20;;;;;;;;;30.75;24.75;;;;;;;;5037494;28;51173;-43
2022/01/15 00:45:08;;;;;;;;;26.50;24.75;;;;;;;;5037516;28;51201;-49
2022/01/15 00:47:52;;;;;;;;;27.50;23.75;;;;;;;;5037872;28;51132;-46
2022/01/15 00:50:37;;;;;;;;;32.75;29.00;;;;;;;;5037405;28;51164;-42
2022/01/15 00:53:21;;;;;;;;;31.25;27.50;;;;;;;;5037392;28;51170;-45
2022/01/15 00:56:05;;;;;;;;;31.25;27.50;;;;;;;;5037648;28;51112;-43
2022/01/15 00:58:52;;;;;;;;;28.25;26.00;;;;;;;;5037319;28;51511;-43
2022/01/15 01:01:36;;;;;;;;;35.75;29.75;;;;;;;;5037618;28;51258;-46
2022/01/15 01:04:21;;;;;;;;;38.75;30.75;;;;;;;;5037366;28;51141;-44
2022/01/15 01:07:05;;;;;;;;;35.75;30.75;;;;;;;;5037450;28;51110;-47
2022/01/15 01:10:03;;;;;;;;;37.75;32.00;;;;;;;;5036926;28;51350;-44
2022/01/15 01:13:14;;;;;;;;;41.75;32.75;;;;;;;;5039128;28;51060;-42
2022/01/15 01:25:08;;;;;;;;;34.00;30.00;;;;;;;;5036838;28;51185;-41
2022/01/15 01:27:56;;;;;;;;;37.00;30.75;;;;;;;;5038609;28;51131;-42
2022/01/15 01:33:54;;;;;;;;;34.50;30.00;;;;;;;;5033034;28;51645;-45
2022/01/15 01:36:58;;;;;;;;;33.00;26.75;;;;;;;;5039971;28;51015;-41
2022/01/15 01:39:50;;;;;;;;;31.50;28.25;;;;;;;;5037597;28;51082;-45
2022/01/15 01:42:42;;;;;;;;;39.00;29.75;;;;;;;;5039225;28;51093;-44
2022/01/15 01:45:27;;;;;;;;;40.25;31.75;;;;;;;;5040823;28;51151;-44
2022/01/15 01:48:11;;;;;;;;;38.00;31.00;;;;;;;;5044086;28;51589;-45
2022/01/15 01:50:55;;;;;;;;;37.00;30.75;;;;;;;;5040504;28;51136;-41
2022/01/15 01:53:40;;;;;;;;;40.25;31.50;;;;;;;;5041088;28;51088;-44
2022/01/15 01:56:24;;;;;;;;;33.50;31.00;;;;;;;;5042821;28;51142;-45
2022/01/15 01:59:09;;;;;;;;;41.00;32.00;;;;;;;;5040449;28;51773;-45
2022/01/15 02:01:53;;;;;;;;;36.25;31.00;;;;;;;;5040458;28;51063;-44
2022/01/15 02:04:37;;;;;;;;;38.50;29.75;;;;;;;;5041700;28;51140;-44
2022/01/15 02:07:22;;;;;;;;;40.25;32.00;;;;;;;;5002146;28;51484;-44
2022/01/15 02:10:09;;;;;;;;;34.00;30.50;;;;;;;;5026530;28;52209;-43
2022/01/15 02:12:55;;;;;;;;;43.25;32.50;;;;;;;;5022007;28;51081;-42
2022/01/15 02:15:39;;;;;;;;;38.75;31.00;;;;;;;;5020771;28;51103;-44
2022/01/15 02:18:24;;;;;;;;;39.50;32.50;;;;;;;;5021676;28;51135;-44
2022/01/15 02:23:54;;;;;;;;;35.00;31.50;;;;;;;;5040232;28;51782;-44
2022/01/15 02:26:39;;;;;;;;;35.50;32.00;;;;;;;;5040925;28;51568;-44
2022/01/15 02:29:23;;;;;;;;;36.00;30.50;;;;;;;;5040748;28;51062;-46
2022/01/15 02:32:08;;;;;;;;;40.25;32.50;;;;;;;;5040604;28;51547;-43
2022/01/15 02:34:53;;;;;;;;;33.00;30.00;;;;;;;;5041029;28;51293;-43
2022/01/15 02:37:38;;;;;;;;;33.25;30.25;;;;;;;;5040143;28;51821;-41
2022/01/15 02:40:22;;;;;;;;;33.25;31.00;;;;;;;;5041027;28;51102;-42
2022/01/15 02:43:10;;;;;;;;;37.50;33.00;;;;;;;;5041269;28;51509;-46
2022/01/15 02:45:56;;;;;;;;;38.75;32.00;;;;;;;;5040389;28;51717;-47
2022/01/15 02:48:40;;;;;;;;;41.50;30.25;;;;;;;;5041086;28;51612;-44
2022/01/15 02:51:26;;;;;;;;;31.25;29.25;;;;;;;;5040286;28;51170;-44
2022/01/15 02:54:11;;;;;;;;;33.25;29.25;;;;;;;;5021063;28;51114;-43
2022/01/15 02:56:55;;;;;;;;;38.75;30.00;;;;;;;;5020336;28;51491;-48
2022/01/15 02:59:40;;;;;;;;;32.50;28.75;;;;;;;;5020585;28;51063;-45
2022/01/15 03:02:30;;;;;;;;;41.00;33.50;;;;;;;;5020617;28;51407;-46
2022/01/15 03:05:14;;;;;;;;;39.25;31.75;;;;;;;;5020016;28;51358;-45
2022/01/15 03:07:59;;;;;;;;;35.00;30.00;;;;;;;;5019838;28;51108;-42
2022/01/15 03:10:43;;;;;;;;;35.25;30.50;;;;;;;;5019073;28;51166;-45
2022/01/15 03:13:28;;;;;;;;;34.25;30.00;;;;;;;;5019127;28;51631;-41
2022/01/15 03:16:14;;;;;;;;;36.25;30.50;;;;;;;;5018700;28;51138;-45
2022/01/15 03:18:58;;;;;;;;;32.75;27.75;;;;;;;;5019109;28;51195;-43
2022/01/15 03:21:42;;;;;;;;;34.75;29.75;;;;;;;;5019631;28;51092;-45
2022/01/15 03:24:27;;;;;;;;;36.25;28.50;;;;;;;;5019590;28;51170;-43
2022/01/15 03:27:11;;;;;;;;;35.25;28.50;;;;;;;;5020898;28;51753;-45
2022/01/15 03:29:56;;;;;;;;;30.50;29.25;;;;;;;;5039420;28;51314;-46
2022/01/15 03:32:43;;;;;;;;;35.00;31.00;;;;;;;;5039955;28;51233;-44
2022/01/15 03:35:27;;;;;;;;;40.00;31.25;;;;;;;;5039438;28;51246;-46
2022/01/15 03:38:11;;;;;;;;;34.25;31.75;;;;;;;;5018682;28;51118;-43
2022/01/15 03:40:56;;;;;;;;;37.50;30.00;;;;;;;;5026562;28;51173;-41
2022/01/15 03:43:40;;;;;;;;;37.75;31.25;;;;;;;;5040221;28;51394;-42
2022/01/15 03:46:25;;;;;;;;;48.75;34.75;;;;;;;;5038496;28;51536;-42
2022/01/15 03:49:09;;;;;;;;;42.00;31.25;;;;;;;;5039229;28;51151;-43
2022/01/15 03:51:54;;;;;;;;;34.50;31.25;;;;;;;;5040319;28;51536;-44
2022/01/15 03:54:38;;;;;;;;;38.00;30.50;;;;;;;;5039786;28;51121;-48
2022/01/15 03:57:22;;;;;;;;;36.25;30.25;;;;;;;;5039866;28;51143;-43
2022/01/15 04:00:10;;;;;;;;;37.75;31.25;;;;;;;;5039499;28;51430;-41
2022/01/15 04:02:55;;;;;;;;;41.50;32.50;;;;;;;;5040039;28;51563;-45
2022/01/15 04:05:39;;;;;;;;;36.75;29.50;;;;;;;;5038503;28;51181;-45
2022/01/15 04:08:24;;;;;;;;;39.25;32.00;;;;;;;;5039711;28;51152;-44
2022/01/15 04:11:08;;;;;;;;;39.75;32.50;;;;;;;;5039266;28;51549;-42
2022/01/15 04:13:53;;;;;;;;;43.75;33.25;;;;;;;;5039282;28;51094;-44
2022/01/15 04:16:38;;;;;;;;;43.25;34.75;;;;;;;;5038214;28;51394;-43
2022/01/15 04:19:23;;;;;;;;;44.75;32.00;;;;;;;;5037799;28;51261;-44
2022/01/15 04:22:07;;;;;;;;;36.00;32.00;;;;;;;;5038338;28;51177;-43
2022/01/15 04:24:52;;;;;;;;;35.75;31.75;;;;;;;;5038167;28;51474;-42
2022/01/15 04:27:37;;;;;;;;;39.50;33.75;;;;;;;;5038012;28;51685;-42
2022/01/15 04:30:24;;;;;;;;;38.75;32.25;;;;;;;;5038598;28;51169;-46
2022/01/15 04:33:08;;;;;;;;;38.50;31.75;;;;;;;;5039526;28;51086;-44
2022/01/15 04:35:53;;;;;;;;;38.50;33.25;;;;;;;;5039223;28;51051;-45
2022/01/15 04:38:38;;;;;;;;;40.00;32.00;;;;;;;;5038580;28;51242;-42
2022/01/15 04:41:22;;;;;;;;;43.75;34.00;;;;;;;;5038757;28;51103;-43
2022/01/15 04:44:07;;;;;;;;;46.75;36.75;;;;;;;;5038713;28;51249;-46
2022/01/15 04:46:52;;;;;;;;;45.25;36.50;;;;;;;;5039502;28;51181;-44
2022/01/15 04:49:36;;;;;;;;;49.25;37.50;;;;;;;;5038764;28;51449;-49
2022/01/15 04:52:21;;;;;;;;;42.50;34.50;;;;;;;;5037930;28;51640;-48
2022/01/15 04:55:07;;;;;;;;;46.25;33.75;;;;;;;;5037624;28;51127;-43
2022/01/15 04:57:51;;;;;;;;;51.50;37.25;;;;;;;;5030095;28;51135;-44
2022/01/15 05:00:36;;;;;;;;;48.75;39.25;;;;;;;;5017994;28;51877;-42
2022/01/15 05:03:20;;;;;;;;;49.25;39.50;;;;;;;;5033872;28;51245;-44
2022/01/15 05:06:05;;;;;;;;;48.50;38.25;;;;;;;;5036947;28;51165;-42
2022/01/15 05:09:01;;;;;;;;;42.75;35.50;;;;;;;;5031677;28;51114;-42
2022/01/15 05:12:00;;;;;;;;;49.75;39.00;;;;;;;;5023955;28;51111;-41
2022/01/15 05:14:44;;;;;;;;;47.50;37.75;;;;;;;;5018390;28;51403;-46
2022/01/15 05:17:28;;;;;;;;;45.50;35.00;;;;;;;;5020152;28;51048;-47
2022/01/15 05:20:17;;;;;;;;;44.00;34.25;;;;;;;;5022545;28;51197;-47
2022/01/15 05:23:01;;;;;;;;;46.00;36.75;;;;;;;;5023024;28;51133;-42
2022/01/15 05:25:46;;;;;;;;;50.50;40.50;;;;;;;;5021402;28;51558;-45
2022/01/15 05:28:30;;;;;;;;;48.75;39.75;;;;;;;;5021373;28;51214;-46
2022/01/15 05:31:15;;;;;;;;;49.00;40.25;;;;;;;;5022137;28;51724;-45
2022/01/15 05:33:59;;;;;;;;;53.25;43.75;;;;;;;;5021777;28;51157;-48
2022/01/15 05:36:44;;;;;;;;;63.75;49.50;;;;;;;;5021329;28;51122;-45
2022/01/15 05:39:28;;;;;;;;;69.25;52.75;;;;;;;;5022207;28;51179;-42
2022/01/15 05:42:13;;;;;;;;;71.25;59.75;;;;;;;;5021736;28;51571;-46
2022/01/15 05:44:57;;;;;;;;;87.00;76.00;;;;;;;;5021791;28;51141;-43
2022/01/15 05:47:42;;;;;;;;;105.00;91.50;;;;;;;;5022177;28;51103;-49
2022/01/15 05:50:26;;;;;;;;;164.00;148.25;;;;;;;;5021516;28;51456;-45
2022/01/15 05:53:10;;;;;;;;;207.75;196.50;;;;;;;;5020760;28;51167;-44
2022/01/15 05:55:55;;;;;;;;;185.50;167.25;;;;;;;;5020705;28;51249;-44
2022/01/15 05:58:39;;;;;;;;;141.75;125.25;;;;;;;;5020347;28;51138;-46
2022/01/15 06:01:24;;;;;;;;;85.50;77.50;;;;;;;;5020612;28;51379;-46
2022/01/15 06:04:08;;;;;;;;;75.50;63.50;;;;;;;;5020670;28;51328;-41
2022/01/15 06:06:53;;;;;;;;;69.00;51.25;;;;;;;;5020678;28;51107;-45
2022/01/15 06:09:37;;;;;;;;;56.50;43.00;;;;;;;;5021136;28;51165;-44
2022/01/15 06:12:28;;;;;;;;;48.50;39.00;;;;;;;;5021034;28;51157;-46
2022/01/15 06:15:13;;;;;;;;;47.75;37.50;;;;;;;;5021261;28;51051;-46
2022/01/15 06:17:57;;;;;;;;;45.25;36.75;;;;;;;;5021558;28;51167;-47
2022/01/15 06:20:42;;;;;;;;;43.75;38.00;;;;;;;;5032511;28;51035;-46
2022/01/15 06:23:26;;;;;;;;;49.25;40.00;;;;;;;;5041227;28;51099;-42
2022/01/15 06:26:14;;;;;;;;;52.50;41.25;;;;;;;;5041762;28;51116;-43
2022/01/15 06:28:58;;;;;;;;;51.25;42.00;;;;;;;;5040438;28;51104;-44
2022/01/15 06:31:42;;;;;;;;;58.25;45.50;;;;;;;;5040366;28;51478;-44
2022/01/15 06:34:26;;;;;;;;;57.75;44.00;;;;;;;;5024332;28;51059;-44
2022/01/15 06:37:11;;;;;;;;;52.75;42.50;;;;;;;;5021542;28;51178;-41
2022/01/15 06:39:55;;;;;;;;;54.75;43.75;;;;;;;;5019542;28;51563;-47
2022/01/15 06:42:40;;;;;;;;;56.50;44.25;;;;;;;;5020695;28;51197;-43
2022/01/15 06:45:24;;;;;;;;;57.25;44.00;;;;;;;;5020876;28;51071;-44
2022/01/15 06:48:09;;;;;;;;;55.75;44.25;;;;;;;;5020426;28;51391;-43
2022/01/15 06:50:53;;;;;;;;;56.50;46.00;;;;;;;;5020489;28;51240;-45
2022/01/15 06:53:37;;;;;;;;;55.25;43.75;;;;;;;;5020459;28;51231;-45
2022/01/15 06:56:22;;;;;;;;;58.75;46.25;;;;;;;;5019351;28;51147;-44
2022/01/15 06:59:06;;;;;;;;;56.75;43.25;;;;;;;;5019246;28;51216;-44
2022/01/15 07:01:51;;;;;;;;;58.75;45.75;;;;;;;;5019833;28;51166;-48
2022/01/15 07:04:35;;;;;;;;;61.00;46.50;;;;;;;;5019319;28;51418;-43
2022/01/15 07:07:20;;;;;;;;;63.75;50.25;;;;;;;;5019559;28;51178;-42
2022/01/15 07:10:04;;;;;;;;;68.00;53.50;;;;;;;;5029877;28;51379;-45
2022/01/15 07:12:48;;;;;;;;;62.25;47.75;;;;;;;;5040325;28;51150;-46
2022/01/15 07:15:33;;;;;;;;;61.00;46.25;;;;;;;;5040952;28;51164;-43
2022/01/15 07:18:17;;;;;;;;;57.25;45.50;;;;;;;;5040385;28;51071;-46
2022/01/15 07:21:02;;;;;;;;;63.75;50.00;;;;;;;;5040561;28;52063;-45
2022/01/15 07:23:46;;;;;;;;;65.25;49.25;;;;;;;;5040084;28;51098;-45
2022/01/15 07:26:30;;;;;;;;;80.00;55.50;;;;;;;;5040605;28;51026;-45
2022/01/15 07:29:16;;;;;;;;;64.25;49.75;;;;;;;;5039884;28;51252;-46
2022/01/15 07:32:00;;;;;;;;;63.25;49.50;;;;;;;;5038514;28;51134;-47
2022/01/15 07:34:44;;;;;;;;;62.00;46.50;;;;;;;;5018671;28;51709;-45
2022/01/15 07:37:30;;;;;;;;;56.50;45.50;;;;;;;;5018601;28;51075;-43
2022/01/15 07:40:14;;;;;;;;;66.50;50.50;;;;;;;;5036189;28;51470;-46
2022/01/15 07:42:58;;;;;;;;;61.75;47.75;;;;;;;;5037671;28;51614;-42
2022/01/15 07:45:43;;;;;;;;;65.50;50.00;;;;;;;;5035982;28;51336;-45
2022/01/15 07:48:27;;;;;;;;;71.50;59.50;;;;;;;;5038167;28;51277;-43
2022/01/15 07:51:12;;;;;;;;;74.00;63.25;;;;;;;;5038716;28;51186;-45
2022/01/15 07:53:56;;;;;;;;;77.25;68.50;;;;;;;;5038310;28;51379;-43
2022/01/15 07:56:41;;;;;;;;;77.25;67.00;;;;;;;;5038392;28;51071;-47
2022/01/15 07:59:25;;;;;;;;;78.75;69.25;;;;;;;;5038245;28;51631;-46
2022/01/15 08:02:09;;;;;;;;;76.25;66.75;;;;;;;;5039691;28;51207;-41
2022/01/15 08:04:54;;;;;;;;;75.50;63.50;;;;;;;;5038205;28;51467;-43
2022/01/15 08:07:40;;;;;;;;;74.50;61.00;;;;;;;;5038444;28;51130;-46
2022/01/15 08:10:24;;;;;;;;;67.50;54.00;;;;;;;;5038127;28;51068;-44
2022/01/15 08:13:09;;;;;;;;;73.50;58.50;;;;;;;;5037916;28;51273;-42
2022/01/15 08:15:53;;;;;;;;;66.75;50.75;;;;;;;;5037305;28;51119;-46
2022/01/15 08:18:38;;;;;;;;;70.50;56.75;;;;;;;;5038553;28;51135;-45
2022/01/15 08:21:23;;;;;;;;;60.75;46.50;;;;;;;;5039111;28;51059;-45
2022/01/15 08:24:08;;;;;;;;;60.00;45.75;;;;;;;;5031297;28;51691;-48
2022/01/15 08:26:52;;;;;;;;;62.00;47.00;;;;;;;;5021791;28;50973;-42
2022/01/15 08:29:37;;;;;;;;;57.75;44.50;;;;;;;;5019050;28;51508;-43
2022/01/15 08:32:21;;;;;;;;;52.50;42.75;;;;;;;;5018843;28;51078;-47
2022/01/15 08:35:06;;;;;;;;;52.50;42.25;;;;;;;;5019251;28;51592;-44
2022/01/15 08:37:50;;;;;;;;;52.50;40.75;;;;;;;;5037754;28;51508;-47
2022/01/15 08:40:35;;;;;;;;;51.75;43.25;;;;;;;;5037963;28;51226;-44
2022/01/15 08:43:19;;;;;;;;;51.25;42.00;;;;;;;;5018881;28;51076;-45
2022/01/15 08:46:03;;;;;;;;;50.75;39.25;;;;;;;;5022140;28;51118;-43
2022/01/15 08:48:49;;;;;;;;;52.00;40.25;;;;;;;;5038854;28;51608;-46
2022/01/15 08:51:33;;;;;;;;;50.50;39.00;;;;;;;;5041512;28;51115;-44
2022/01/15 08:54:17;;;;;;;;;52.75;40.75;;;;;;;;5042799;28;51182;-43
2022/01/15 08:57:02;;;;;;;;;48.50;37.50;;;;;;;;5035542;28;51192;-47
2022/01/15 08:59:46;;;;;;;;;50.75;38.75;;;;;;;;5022954;28;51609;-46
2022/01/15 09:02:31;;;;;;;;;49.00;39.00;;;;;;;;5026623;28;51491;-47
2022/01/15 09:05:15;;;;;;;;;52.25;41.75;;;;;;;;5027208;28;51072;-46
2022/01/15 09:08:00;;;;;;;;;49.00;41.00;;;;;;;;5022571;28;51246;-45
2022/01/15 09:10:44;;;;;;;;;45.50;35.50;;;;;;;;5022635;28;51186;-42
2022/01/15 09:13:29;;;;;;;;;42.75;35.75;;;;;;;;5022741;28;50984;-52
2022/01/15 09:16:14;;;;;;;;;45.75;35.50;;;;;;;;5037922;28;51994;-48
2022/01/15 09:18:58;;;;;;;;;45.75;36.75;;;;;;;;5042517;28;51085;-50
2022/01/15 09:21:42;;;;;;;;;46.25;37.25;;;;;;;;5042878;28;51146;-51
2022/01/15 09:24:27;;;;;;;;;47.75;37.50;;;;;;;;5042606;28;51579;-52
2022/01/15 09:30:15;;;;;;;;;50.50;40.00;;;;;;;;5035483;28;51068;-49
2022/01/15 09:33:02;;;;;;;;;49.75;39.00;;;;;;;;5026034;28;51375;-47
2022/01/15 09:35:46;;;;;;;;;44.00;36.25;;;;;;;;5022259;28;51163;-48
2022/01/15 09:38:31;;;;;;;;;50.25;40.25;;;;;;;;5022535;28;51601;-49
2022/01/15 09:41:15;;;;;;;;;48.75;38.25;;;;;;;;5037422;28;51067;-52
2022/01/15 09:44:00;;;;;;;;;46.00;36.25;;;;;;;;5026249;28;51159;-51
2022/01/15 09:46:48;;;;;;;;;43.25;36.50;;;;;;;;5020877;28;51130;-45
2022/01/15 09:49:32;;;;;;;;;46.25;36.25;;;;;;;;5020912;28;51139;-47
2022/01/15 09:52:17;;;;;;;;;46.75;37.50;;;;;;;;5020478;28;51205;-49
2022/01/15 09:55:03;;;;;;;;;43.75;34.75;;;;;;;;5020991;28;51157;-48
2022/01/15 09:57:48;;;;;;;;;42.00;34.00;;;;;;;;5036229;28;51460;-52
2022/01/15 10:00:32;;;;;;;;;40.75;33.25;;;;;;;;5040160;28;51133;-50
2022/01/15 10:03:18;;;;;;;;;40.00;33.25;;;;;;;;5034819;28;51672;-48
2022/01/15 10:06:06;;;;;;;;;39.00;33.50;;;;;;;;5028246;28;51986;-50
2022/01/15 10:09:00;;;;;;;;;41.50;32.75;;;;;;;;5041460;28;51108;-51
2022/01/15 10:11:46;;;;;;;;;37.75;32.00;;;;;;;;5041604;28;51022;-47
2022/01/15 10:14:33;;;;;;;;;37.75;30.50;;;;;;;;5029708;28;51716;-51
2022/01/15 10:17:25;;;;;;;;;36.00;29.75;;;;;;;;5029923;28;51198;-52
2022/01/15 10:20:14;;;;;;;;;38.75;30.25;;;;;;;;5021662;28;50993;-51
2022/01/15 10:23:00;;;;;;;;;36.50;30.00;;;;;;;;5020676;28;51225;-51
2022/01/15 10:25:44;;;;;;;;;28.00;26.50;;;;;;;;5021056;28;51287;-47
2022/01/15 10:28:49;;;;;;;;;33.50;29.00;;;;;;;;5020244;28;51039;-51
2022/01/15 10:31:43;;;;;;;;;31.00;27.00;;;;;;;;5025971;28;51190;-49
2022/01/15 10:34:37;;;;;;;;;32.50;27.00;;;;;;;;5020370;28;51039;-51
2022/01/15 10:37:22;;;;;;;;;34.50;29.50;;;;;;;;5037996;28;51090;-51
2022/01/15 10:40:08;;;;;;;;;32.00;27.50;;;;;;;;5040713;28;51527;-50
2022/01/15 10:42:55;;;;;;;;;33.75;29.00;;;;;;;;5023389;28;51153;-50
2022/01/15 10:45:53;;;;;;;;;35.00;25.75;;;;;;;;5039237;28;51087;-51
2022/01/15 10:48:39;;;;;;;;;29.75;28.00;;;;;;;;5040162;28;51457;-51
2022/01/15 10:51:23;;;;;;;;;31.25;28.25;;;;;;;;5025862;28;51186;-50
2022/01/15 10:54:08;;;;;;;;;29.50;26.25;;;;;;;;5020624;28;51173;-47
2022/01/15 10:57:06;;;;;;;;;34.75;30.75;;;;;;;;5020919;28;51078;-51
2022/01/15 11:00:09;;;;;;;;;31.75;28.50;;;;;;;;5040347;28;51491;-48
2022/01/15 11:03:00;;;;;;;;;34.00;29.50;;;;;;;;5040914;28;51119;-48
2022/01/15 11:05:46;;;;;;;;;37.75;27.50;;;;;;;;5040860;28;51087;-46
2022/01/15 11:08:34;;;;;;;;;37.50;28.00;;;;;;;;5040109;28;51036;-50
2022/01/15 11:11:20;;;;;;;;;36.00;30.00;;;;;;;;5023673;28;51125;-49
2022/01/15 11:14:04;;;;;;;;;32.25;29.50;;;;;;;;5018925;28;51984;-46
2022/01/15 11:16:48;;;;;;;;;31.50;29.25;;;;;;;;5020084;28;51230;-46
2022/01/15 11:19:33;;;;;;;;;34.25;31.25;;;;;;;;5019776;28;51258;-51
2022/01/15 11:22:21;;;;;;;;;31.75;29.00;;;;;;;;5022702;28;51390;-51
2022/01/15 11:25:05;;;;;;;;;34.00;29.00;;;;;;;;5040231;28;51095;-53
2022/01/15 11:27:50;;;;;;;;;31.75;26.25;;;;;;;;5040417;28;51050;-50
2022/01/15 11:30:34;;;;;;;;;28.75;27.50;;;;;;;;5039771;28;51566;-51
2022/01/15 11:33:21;;;;;;;;;31.75;27.75;;;;;;;;5035859;28;51178;-49
2022/01/15 11:36:06;;;;;;;;;35.00;29.25;;;;;;;;5022433;28;51261;-51
2022/01/15 11:38:51;;;;;;;;;37.00;30.00;;;;;;;;5019842;28;51540;-46
2022/01/15 11:41:43;;;;;;;;;29.25;28.00;;;;;;;;5024544;28;51182;-49
2022/01/15 11:44:35;;;;;;;;;35.00;29.50;;;;;;;;5029935;28;51133;-49
2022/01/15 11:47:22;;;;;;;;;32.50;28.25;;;;;;;;5019769;28;51688;-51
2022/01/15 11:50:20;;;;;;;;;30.75;26.50;;;;;;;;5025051;28;51546;-52
2022/01/15 11:53:06;;;;;;;;;30.25;23.75;;;;;;;;5028369;28;51415;-48
2022/01/15 11:56:10;;;;;;;;;27.75;25.50;;;;;;;;5031821;28;51598;-51
2022/01/15 11:58:55;;;;;;;;;28.00;24.25;;;;;;;;5025828;28;51126;-48
2022/01/15 12:01:44;;;;;;;;;30.25;25.50;;;;;;;;5032622;28;51129;-49
2022/01/15 12:04:33;;;;;;;;;34.25;28.00;;;;;;;;5024962;28;51596;-48
2022/01/15 12:07:21;;;;;;;;;34.50;29.00;;;;;;;;5032173;28;51564;-52
2022/01/15 12:10:05;;;;;;;;;29.75;28.50;;;;;;;;5022975;28;51127;-52
2022/01/15 12:12:53;;;;;;;;;29.25;27.75;;;;;;;;5019596;28;51088;-50
2022/01/15 12:15:37;;;;;;;;;30.50;28.50;;;;;;;;5018661;28;51276;-49
2022/01/15 12:18:23;;;;;;;;;31.50;28.00;;;;;;;;5019242;28;51190;-48
2022/01/15 12:21:07;;;;;;;;;33.50;27.50;;;;;;;;5019291;28;51119;-49
2022/01/15 12:23:52;;;;;;;;;30.75;27.00;;;;;;;;5019180;28;51158;-51
2022/01/15 12:26:36;;;;;;;;;31.00;27.00;;;;;;;;5035647;28;51019;-50
2022/01/15 12:29:20;;;;;;;;;31.50;28.50;;;;;;;;5039076;28;51549;-52
2022/01/15 12:32:05;;;;;;;;;30.75;26.25;;;;;;;;5038984;28;51164;-49
2022/01/15 12:34:49;;;;;;;;;37.00;29.75;;;;;;;;5039164;28;51110;-48
2022/01/15 12:37:34;;;;;;;;;33.75;29.00;;;;;;;;5039288;28;51134;-47
2022/01/15 12:40:20;;;;;;;;;31.50;27.50;;;;;;;;5038888;28;51526;-49
2022/01/15 12:43:06;;;;;;;;;28.75;24.75;;;;;;;;5038873;28;51081;-50
2022/01/15 12:45:52;;;;;;;;;31.25;28.75;;;;;;;;5038458;28;51615;-49
2022/01/15 12:48:43;;;;;;;;;31.50;28.25;;;;;;;;5038899;28;51063;-50
2022/01/15 12:51:27;;;;;;;;;30.50;27.50;;;;;;;;5039443;28;51083;-51
2022/01/15 12:54:12;;;;;;;;;33.25;27.00;;;;;;;;5038535;28;51160;-47
2022/01/15 12:56:56;;;;;;;;;32.25;29.00;;;;;;;;5038729;28;51624;-47
2022/01/15 12:59:41;;;;;;;;;28.25;25.25;;;;;;;;5022660;28;51075;-47
2022/01/15 13:02:28;;;;;;;;;30.25;27.00;;;;;;;;5038462;28;51093;-45
2022/01/15 13:05:13;;;;;;;;;33.50;27.25;;;;;;;;5026788;28;51338;-49
2022/01/15 13:08:02;;;;;;;;;29.75;26.50;;;;;;;;5017894;28;51152;-46
2022/01/15 13:10:56;;;;;;;;;26.50;25.00;;;;;;;;5035417;28;51525;-45
2022/01/15 13:13:40;;;;;;;;;31.50;26.50;;;;;;;;5038576;28;51154;-45
2022/01/15 13:16:30;;;;;;;;;27.50;25.25;;;;;;;;5020322;28;51122;-47
2022/01/15 13:19:15;;;;;;;;;27.75;25.25;;;;;;;;5018549;28;51440;-46
2022/01/15 13:21:59;;;;;;;;;31.50;24.50;;;;;;;;5018604;28;51100;-47
2022/01/15 13:24:44;;;;;;;;;33.00;28.25;;;;;;;;5018450;28;51410;-45
2022/01/15 13:27:28;;;;;;;;;30.00;26.25;;;;;;;;5022202;28;51232;-48
2022/01/15 13:30:13;;;;;;;;;36.50;28.75;;;;;;;;5018441;28;51475;-44
2022/01/15 13:32:57;;;;;;;;;31.50;28.75;;;;;;;;5021254;28;51188;-48
2022/01/15 13:35:42;;;;;;;;;40.00;30.50;;;;;;;;5033287;28;50999;-45
2022/01/15 13:38:31;;;;;;;;;34.25;30.00;;;;;;;;5020219;28;51181;-47
2022/01/15 13:41:16;;;;;;;;;33.25;27.75;;;;;;;;5035008;28;51162;-50
2022/01/15 13:44:09;;;;;;;;;29.25;25.75;;;;;;;;5032538;28;51460;-50
2022/01/15 13:46:53;;;;;;;;;32.00;29.50;;;;;;;;5028750;28;51156;-44
2022/01/15 13:55:47;;;;;;;;;31.75;29.00;;;;;;;;5035843;28;51149;-46
2022/01/15 13:58:31;;;;;;;;;32.25;30.00;;;;;;;;5041663;28;51147;-46
2022/01/15 14:01:15;;;;;;;;;32.25;28.50;;;;;;;;5039121;28;51161;-43
2022/01/15 14:04:19;;;;;;;;;26.00;24.75;;;;;;;;5036392;28;51141;-50
2022/01/15 14:07:05;;;;;;;;;37.25;32.25;;;;;;;;5037058;28;51046;-49
2022/01/15 14:09:53;;;;;;;;;37.75;29.50;;;;;;;;5023532;28;51371;-52
2022/01/15 14:12:37;;;;;;;;;46.75;33.00;;;;;;;;5023914;28;51179;-43
2022/01/15 14:15:30;;;;;;;;;35.50;31.25;;;;;;;;5030522;28;51203;-45
2022/01/15 14:18:18;;;;;;;;;41.25;31.25;;;;;;;;5027411;28;51133;-43
2022/01/15 14:21:22;;;;;;;;;40.25;31.50;;;;;;;;5032931;28;51578;-45
2022/01/15 14:24:17;;;;;;;;;38.75;31.75;;;;;;;;5029221;28;51218;-43
2022/01/15 14:27:01;;;;;;;;;40.00;31.25;;;;;;;;5026519;28;51558;-42
2022/01/15 14:29:46;;;;;;;;;36.75;30.75;;;;;;;;5027266;28;51141;-44
2022/01/15 14:32:31;;;;;;;;;36.75;31.25;;;;;;;;5026469;28;51118;-46
2022/01/15 14:35:15;;;;;;;;;41.50;32.25;;;;;;;;5035610;28;51516;-45
2022/01/15 14:38:00;;;;;;;;;39.25;33.50;;;;;;;;5033109;28;51377;-47
2022/01/15 14:40:44;;;;;;;;;43.75;35.00;;;;;;;;5028911;28;52060;-43
2022/01/15 14:43:29;;;;;;;;;38.00;33.00;;;;;;;;5036319;28;51160;-42
2022/01/15 14:46:14;;;;;;;;;38.00;32.50;;;;;;;;5035148;28;51534;-45
2022/01/15 14:48:58;;;;;;;;;41.25;32.75;;;;;;;;5023695;28;51232;-42
2022/01/15 14:51:42;;;;;;;;;42.50;34.25;;;;;;;;5032179;28;51223;-44
2022/01/15 14:54:27;;;;;;;;;44.50;36.50;;;;;;;;5036171;28;51086;-45
2022/01/15 14:57:12;;;;;;;;;39.00;32.75;;;;;;;;5029718;28;51311;-42
2022/01/15 14:59:57;;;;;;;;;41.00;34.00;;;;;;;;5024009;28;51068;-43
2022/01/15 15:02:41;;;;;;;;;42.00;33.75;;;;;;;;5028175;28;51611;-47
2022/01/15 15:05:25;;;;;;;;;44.50;36.00;;;;;;;;5033836;28;51083;-45
2022/01/15 15:08:10;;;;;;;;;42.50;35.00;;;;;;;;5032045;28;51085;-43
2022/01/15 15:10:54;;;;;;;;;42.50;34.00;;;;;;;;5006702;28;51121;-46
2022/01/15 15:13:39;;;;;;;;;44.00;34.50;;;;;;;;5029639;28;51192;-46
2022/01/15 15:16:23;;;;;;;;;41.50;33.00;;;;;;;;5020329;28;51134;-44
2022/01/15 15:19:07;;;;;;;;;44.25;37.00;;;;;;;;5027783;28;51403;-48
2022/01/15 15:21:52;;;;;;;;;44.25;36.00;;;;;;;;5031512;28;51652;-45
2022/01/15 15:24:36;;;;;;;;;45.75;35.50;;;;;;;;5027754;28;51427;-48
2022/01/15 15:27:21;;;;;;;;;46.25;35.00;;;;;;;;5028805;28;51506;-48
2022/01/15 15:30:06;;;;;;;;;46.25;36.00;;;;;;;;5020391;28;51158;-44
2022/01/15 15:32:51;;;;;;;;;40.50;33.00;;;;;;;;5038709;28;51165;-42
2022/01/15 15:35:35;;;;;;;;;47.75;37.00;;;;;;;;5034371;28;51157;-43
2022/01/15 15:38:19;;;;;;;;;45.50;37.00;;;;;;;;5028109;28;51149;-45
2022/01/15 15:41:04;;;;;;;;;45.25;35.25;;;;;;;;5026422;28;51618;-41
2022/01/15 15:43:48;;;;;;;;;45.00;35.75;;;;;;;;5030247;28;51162;-42
2022/01/15 15:46:33;;;;;;;;;42.50;31.75;;;;;;;;5029473;28;51122;-51
2022/01/15 15:49:17;;;;;;;;;44.25;34.75;;;;;;;;5028686;28;51562;-45
2022/01/15 15:52:02;;;;;;;;;38.50;32.00;;;;;;;;5027763;28;51721;-44
2022/01/15 15:54:47;;;;;;;;;45.75;35.50;;;;;;;;5027402;28;51156;-48
2022/01/15 15:57:32;;;;;;;;;36.00;30.75;;;;;;;;5025743;28;51580;-49
2022/01/15 16:00:19;;;;;;;;;42.00;34.50;;;;;;;;5027868;28;51160;-45
2022/01/15 16:03:03;;;;;;;;;38.00;30.75;;;;;;;;5021314;28;52220;-47
2022/01/15 16:05:47;;;;;;;;;38.25;29.25;;;;;;;;5032786;28;51071;-45
2022/01/15 16:08:33;;;;;;;;;37.75;29.25;;;;;;;;5022298;28;51185;-47
2022/01/15 16:11:19;;;;;;;;;35.25;29.25;;;;;;;;5031758;28;51320;-50
2022/01/15 16:14:05;;;;;;;;;37.25;30.50;;;;;;;;5038233;28;51504;-47
2022/01/15 16:16:50;;;;;;;;;33.00;27.25;;;;;;;;5032384;28;51577;-44
2022/01/15 16:19:35;;;;;;;;;34.50;30.00;;;;;;;;5028599;28;51796;-49
2022/01/15 16:22:19;;;;;;;;;35.00;31.00;;;;;;;;5022587;28;51040;-47
2022/01/15 16:25:04;;;;;;;;;37.25;30.50;;;;;;;;5033092;28;51468;-46
2022/01/15 16:27:48;;;;;;;;;31.50;29.00;;;;;;;;5029392;28;51285;-45